createdAt,value
2018-11-05T00:00:19.711Z,44.23
2018-11-05T00:02:52.024Z,40.70
2018-11-05T00:05:21.796Z,40.78
2018-11-05T00:07:51.047Z,39.00
2018-11-05T00:10:20.093Z,38.33
2018-11-05T00:12:49.116Z,37.33
2018-11-05T00:15:18.148Z,40.73
2018-11-05T00:17:47.228Z,40.20
2018-11-05T00:20:16.353Z,41.15
2018-11-05T00:22:45.489Z,41.27
2018-11-05T00:25:15.510Z,36.13
2018-11-05T00:27:44.488Z,38.02
2018-11-05T00:30:14.421Z,43.02
2018-11-05T00:32:44.069Z,35.37
2018-11-05T00:35:13.375Z,42.80
2018-11-05T00:37:42.402Z,37.97
2018-11-05T00:40:14.235Z,36.95
2018-11-05T00:42:44.020Z,37.57
2018-11-05T00:45:13.385Z,40.63
2018-11-05T00:47:43.070Z,38.05
2018-11-05T00:50:13.832Z,39.70
2018-11-05T00:52:42.860Z,39.40
2018-11-05T00:55:12.997Z,35.03
2018-11-05T00:57:42.081Z,38.13
2018-11-05T01:00:14.568Z,40.45
2018-11-05T01:02:43.733Z,39.93
2018-11-05T01:05:14.193Z,35.37
2018-11-05T01:07:43.925Z,36.70
2018-11-05T01:10:14.166Z,36.27
2018-11-05T01:12:43.269Z,37.33
2018-11-05T01:15:13.936Z,36.13
2018-11-05T01:17:42.942Z,38.17
2018-11-05T01:20:13.014Z,37.20
2018-11-05T01:22:42.024Z,39.53
2018-11-05T01:25:11.126Z,40.57
2018-11-05T01:27:40.118Z,37.40
2018-11-05T01:30:11.239Z,37.87
2018-11-05T01:32:40.435Z,39.83
2018-11-05T01:35:11.414Z,40.07
2018-11-05T01:37:40.479Z,42.13
2018-11-05T01:40:12.320Z,38.07
2018-11-05T01:42:41.410Z,38.30
2018-11-05T01:45:11.768Z,38.10
2018-11-05T01:47:41.976Z,37.63
2018-11-05T01:50:13.444Z,38.20
2018-11-05T01:52:43.273Z,37.40
2018-11-05T01:55:12.636Z,37.83
2018-11-05T01:57:41.991Z,40.67
2018-11-05T02:00:14.012Z,42.93
2018-11-05T02:02:43.648Z,34.97
2018-11-05T02:05:12.851Z,34.40
2018-11-05T02:07:44.326Z,38.47
2018-11-05T02:10:14.986Z,37.37
2018-11-05T02:12:43.977Z,37.50
2018-11-05T02:15:13.162Z,37.47
2018-11-05T02:17:44.179Z,33.45
2018-11-05T02:20:14.208Z,29.17
2018-11-05T02:22:43.297Z,34.40
2018-11-05T02:25:13.245Z,32.57
2018-11-05T02:27:42.692Z,35.63
2018-11-05T02:30:15.549Z,34.67
2018-11-05T02:32:44.947Z,32.50
2018-11-05T02:35:15.180Z,33.67
2018-11-05T02:37:44.928Z,32.30
2018-11-05T02:40:15.162Z,33.50
2018-11-05T02:42:44.644Z,35.77
2018-11-05T02:45:14.820Z,32.88
2018-11-05T02:47:43.840Z,29.73
2018-11-05T02:50:13.830Z,29.60
2018-11-05T02:52:43.735Z,30.77
2018-11-05T02:55:12.808Z,29.33
2018-11-05T02:57:41.874Z,32.10
2018-11-05T03:00:15.818Z,30.43
2018-11-05T03:02:44.866Z,28.80
2018-11-05T03:05:15.068Z,32.70
2018-11-05T03:07:44.869Z,30.23
2018-11-05T03:10:14.337Z,32.60
2018-11-05T03:12:44.128Z,33.43
2018-11-05T03:15:14.360Z,30.82
2018-11-05T03:17:43.420Z,31.73
2018-11-05T03:20:13.472Z,28.80
2018-11-05T03:22:42.940Z,39.00
2018-11-05T03:25:13.110Z,32.77
2018-11-05T03:27:42.387Z,34.93
2018-11-05T03:30:14.315Z,35.13
2018-11-05T03:32:43.460Z,32.90
2018-11-05T03:35:13.266Z,36.07
2018-11-05T03:37:43.679Z,35.60
2018-11-05T03:40:13.286Z,32.76
2018-11-05T03:42:42.851Z,34.67
2018-11-05T03:45:15.159Z,31.07
2018-11-05T03:47:44.552Z,30.90
2018-11-05T03:50:15.625Z,30.08
2018-11-05T03:52:45.468Z,29.77
2018-11-05T03:55:15.295Z,32.03
2018-11-05T03:57:44.368Z,28.23
2018-11-05T04:00:14.700Z,32.90
2018-11-05T04:02:44.045Z,27.17
2018-11-05T04:05:13.055Z,29.43
2018-11-05T04:07:42.146Z,26.73
2018-11-05T04:10:12.369Z,26.52
2018-11-05T04:12:41.540Z,27.50
2018-11-05T04:15:11.039Z,26.37
2018-11-05T04:17:40.097Z,28.27
2018-11-05T04:20:11.714Z,24.67
2018-11-05T04:22:41.741Z,30.08
2018-11-05T04:25:10.866Z,23.77
2018-11-05T04:27:40.225Z,27.87
2018-11-05T04:30:13.643Z,25.92
2018-11-05T04:32:43.055Z,27.10
2018-11-05T04:35:13.089Z,25.83
2018-11-05T04:37:42.303Z,26.40
2018-11-05T04:40:11.862Z,24.57
2018-11-05T04:42:41.015Z,25.63
2018-11-05T04:45:11.576Z,27.47
2018-11-05T04:47:41.168Z,23.00
2018-11-05T04:50:11.552Z,23.45
2018-11-05T04:52:41.356Z,27.30
2018-11-05T04:55:10.534Z,23.00
2018-11-05T04:57:39.712Z,23.57
2018-11-05T05:00:14.164Z,27.03
2018-11-05T05:02:43.446Z,25.73
2018-11-05T05:05:13.840Z,25.17
2018-11-05T05:07:43.057Z,28.57
2018-11-05T05:10:12.184Z,25.93
2018-11-05T05:12:42.189Z,25.10
2018-11-05T05:15:12.054Z,27.58
2018-11-05T05:17:41.527Z,28.53
2018-11-05T05:20:13.416Z,24.87
2018-11-05T05:22:42.908Z,28.77
2018-11-05T05:25:12.005Z,26.10
2018-11-05T05:27:41.210Z,26.27
2018-11-05T05:30:14.883Z,26.10
2018-11-05T05:32:44.499Z,27.20
2018-11-05T05:35:13.630Z,22.85
2018-11-05T05:37:43.247Z,25.75
2018-11-05T05:40:12.426Z,24.00
2018-11-05T05:42:41.667Z,28.37
2018-11-05T05:45:11.776Z,26.07
2018-11-05T05:47:41.339Z,26.07
2018-11-05T05:50:13.450Z,25.90
2018-11-05T05:52:43.705Z,24.55
2018-11-05T05:55:12.854Z,26.07
2018-11-05T05:57:41.998Z,29.00
2018-11-05T06:00:13.351Z,19.73
2018-11-05T06:02:42.501Z,24.30
2018-11-05T06:05:12.661Z,25.07
2018-11-05T06:07:42.288Z,23.52
2018-11-05T06:10:12.840Z,25.00
2018-11-05T06:12:42.291Z,27.73
2018-11-05T06:15:15.384Z,28.92
2018-11-05T06:17:44.507Z,26.20
2018-11-05T06:20:16.082Z,29.10
2018-11-05T06:22:46.068Z,24.83
2018-11-05T06:25:15.307Z,30.65
2018-11-05T06:27:44.480Z,27.60
2018-11-05T06:30:17.158Z,27.13
2018-11-05T06:32:46.992Z,24.93
2018-11-05T06:35:16.264Z,25.88
2018-11-05T06:37:45.204Z,25.57
2018-11-05T06:40:17.140Z,25.97
2018-11-05T06:42:46.578Z,23.43
2018-11-05T06:45:19.725Z,20.77
2018-11-05T06:47:48.992Z,20.60
2018-11-05T06:50:22.253Z,22.17
2018-11-05T06:52:51.464Z,19.87
2018-11-05T06:55:20.419Z,26.17
2018-11-05T06:57:49.597Z,21.73
2018-11-05T07:00:21.840Z,28.37
2018-11-05T07:02:50.890Z,23.00
2018-11-05T07:05:20.972Z,23.27
2018-11-05T07:07:49.970Z,22.53
2018-11-05T07:10:19.581Z,28.47
2018-11-05T07:12:48.632Z,25.07
2018-11-05T07:15:18.626Z,27.53
2018-11-05T07:17:48.868Z,23.43
2018-11-05T07:20:19.036Z,27.00
2018-11-05T07:22:48.810Z,25.70
2018-11-05T07:25:18.143Z,24.17
2018-11-05T07:27:47.299Z,23.57
2018-11-05T07:30:19.923Z,23.02
2018-11-05T07:32:49.948Z,24.13
2018-11-05T07:35:19.112Z,22.50
2018-11-05T07:37:48.168Z,24.83
2018-11-05T07:40:18.118Z,19.27
2018-11-05T07:42:47.298Z,19.17
2018-11-05T07:45:18.216Z,15.73
2018-11-05T07:47:47.747Z,15.93
2018-11-05T07:50:17.870Z,20.30
2018-11-05T07:52:46.880Z,16.03
2018-11-05T07:55:17.044Z,16.10
2018-11-05T07:57:46.976Z,16.03
2018-11-05T08:00:22.336Z,17.27
2018-11-05T08:02:53.303Z,16.83
2018-11-05T08:05:23.437Z,18.00
2018-11-05T08:07:52.594Z,14.30
2018-11-05T08:10:21.649Z,14.70
2018-11-05T08:12:50.720Z,13.83
2018-11-05T08:15:21.118Z,14.80
2018-11-05T08:17:51.476Z,13.50
2018-11-05T08:20:20.752Z,12.37
2018-11-05T08:22:49.931Z,14.00
2018-11-05T08:25:19.045Z,13.33
2018-11-05T08:27:48.139Z,11.70
2018-11-05T08:30:20.748Z,10.93
2018-11-05T08:32:49.880Z,11.07
2018-11-05T08:35:18.920Z,11.65
2018-11-05T08:37:48.268Z,13.07
2018-11-05T08:40:19.956Z,11.33
2018-11-05T08:42:49.780Z,11.43
2018-11-05T08:45:20.214Z,12.18
2018-11-05T08:47:49.316Z,12.58
2018-11-05T08:50:19.472Z,13.73
2018-11-05T08:52:48.461Z,11.30
2018-11-05T08:55:18.824Z,11.53
2018-11-05T08:57:47.929Z,13.97
2018-11-05T09:00:24.136Z,13.53
2018-11-05T09:02:53.940Z,11.10
2018-11-05T09:05:23.416Z,12.10
2018-11-05T09:07:53.272Z,10.90
2018-11-05T09:10:22.479Z,10.27
2018-11-05T09:12:51.368Z,10.80
2018-11-05T09:15:21.355Z,10.45
2018-11-05T09:17:50.588Z,13.27
2018-11-05T09:20:20.148Z,9.30
2018-11-05T09:22:50.000Z,9.70
2018-11-05T09:25:19.129Z,9.13
2018-11-05T09:27:48.228Z,9.60
2018-11-05T09:30:21.657Z,10.77
2018-11-05T09:32:50.758Z,9.87
2018-11-05T09:35:19.840Z,10.17
2018-11-05T09:37:48.901Z,9.10
2018-11-05T09:40:22.261Z,8.63
2018-11-05T09:42:51.564Z,9.83
2018-11-05T09:45:23.248Z,8.45
2018-11-05T09:47:52.280Z,12.63
2018-11-05T09:50:21.438Z,8.47
2018-11-05T09:52:50.626Z,7.80
2018-11-05T09:55:19.834Z,8.37
2018-11-05T09:57:48.868Z,8.03
2018-11-05T10:00:19.679Z,7.87
2018-11-05T10:02:54.176Z,9.03
2018-11-05T10:05:23.163Z,8.13
2018-11-05T10:07:52.220Z,8.58
2018-11-05T10:10:21.495Z,8.05
2018-11-05T10:12:50.510Z,8.07
2018-11-05T10:15:19.595Z,8.83
2018-11-05T10:17:48.692Z,8.13
2018-11-05T10:20:19.052Z,8.00
2018-11-05T10:22:48.224Z,8.20
2018-11-05T10:25:17.510Z,8.20
2018-11-05T10:27:47.039Z,7.67
2018-11-05T10:30:19.485Z,8.43
2018-11-05T10:32:48.688Z,8.27
2018-11-05T10:35:18.106Z,9.63
2018-11-05T10:37:47.191Z,7.62
2018-11-05T10:40:18.298Z,7.55
2018-11-05T10:42:47.916Z,7.80
2018-11-05T10:45:17.969Z,7.60
2018-11-05T10:47:47.029Z,7.80
2018-11-05T10:50:17.180Z,8.10
2018-11-05T10:52:49.400Z,7.66
2018-11-05T10:55:18.489Z,7.60
2018-11-05T10:57:47.667Z,8.33
2018-11-05T11:00:24.580Z,8.38
2018-11-05T11:02:58.893Z,9.63
2018-11-05T11:05:28.832Z,12.30
2018-11-05T11:07:58.763Z,9.50
2018-11-05T11:10:28.709Z,11.30
2018-11-05T11:12:58.003Z,11.57
2018-11-05T11:15:27.112Z,9.43
2018-11-05T11:17:56.472Z,10.30
2018-11-05T11:20:25.505Z,9.93
2018-11-05T11:22:54.541Z,10.63
2018-11-05T11:25:23.600Z,10.40
2018-11-05T11:27:52.755Z,11.37
2018-11-05T11:30:21.748Z,12.07
2018-11-05T11:32:51.799Z,11.12
2018-11-05T11:35:20.983Z,12.10
2018-11-05T11:37:50.055Z,10.17
2018-11-05T11:40:20.614Z,10.28
2018-11-05T11:42:49.977Z,11.23
2018-11-05T11:45:20.272Z,11.73
2018-11-05T11:47:49.342Z,12.77
2018-11-05T11:50:18.717Z,11.43
2018-11-05T11:52:48.260Z,13.67
2018-11-05T11:55:19.020Z,14.70
2018-11-05T11:57:48.366Z,11.23
2018-11-05T12:00:22.905Z,10.77
2018-11-05T12:02:52.633Z,12.40
2018-11-05T12:05:21.889Z,11.63
2018-11-05T12:07:50.846Z,12.60
2018-11-05T12:10:23.043Z,15.07
2018-11-05T12:12:53.173Z,11.23
2018-11-05T12:15:22.860Z,11.60
2018-11-05T12:17:52.975Z,11.77
2018-11-05T12:20:23.452Z,11.93
2018-11-05T12:22:53.064Z,13.15
2018-11-05T12:25:28.682Z,11.50
2018-11-05T12:27:57.800Z,13.50
2018-11-05T12:30:27.050Z,10.60
2018-11-05T12:32:56.126Z,9.67
2018-11-05T12:35:25.180Z,12.68
2018-11-05T12:37:54.350Z,12.07
2018-11-05T12:40:23.748Z,14.13
2018-11-05T12:42:53.088Z,12.67
2018-11-05T12:45:22.169Z,10.95
2018-11-05T12:47:51.259Z,11.70
2018-11-05T12:50:21.775Z,11.43
2018-11-05T12:52:52.257Z,14.27
2018-11-05T12:55:21.342Z,12.15
2018-11-05T12:57:50.573Z,12.10
2018-11-05T13:00:23.272Z,12.13
2018-11-05T13:02:56.485Z,10.50
2018-11-05T13:05:26.720Z,11.03
2018-11-05T13:07:55.791Z,11.95
2018-11-05T13:10:25.112Z,11.40
2018-11-05T13:12:54.244Z,10.70
2018-11-05T13:15:23.453Z,9.88
2018-11-05T13:17:52.389Z,11.85
2018-11-05T13:20:23.287Z,11.50
2018-11-05T13:22:52.385Z,12.10
2018-11-05T13:25:21.436Z,10.95
2018-11-05T13:27:51.389Z,11.03
2018-11-05T13:30:20.444Z,10.10
2018-11-05T13:32:49.557Z,11.17
2018-11-05T13:35:19.854Z,11.68
2018-11-05T13:37:49.493Z,10.78
2018-11-05T13:40:20.429Z,11.57
2018-11-05T13:42:50.126Z,11.10
2018-11-05T13:45:19.882Z,11.57
2018-11-05T13:47:49.608Z,10.08
2018-11-05T13:50:18.555Z,13.80
2018-11-05T13:52:47.439Z,11.23
2018-11-05T13:55:17.228Z,10.60
2018-11-05T13:57:47.291Z,12.00
2018-11-05T14:00:20.585Z,11.17
2018-11-05T14:02:50.043Z,11.53
2018-11-05T14:05:19.096Z,12.53
2018-11-05T14:07:48.149Z,12.03
2018-11-05T14:10:19.367Z,13.60
2018-11-05T14:12:48.840Z,15.27
2018-11-05T14:15:17.950Z,14.77
2018-11-05T14:17:52.251Z,13.37
2018-11-05T14:20:22.725Z,13.38
2018-11-05T14:22:54.824Z,15.60
2018-11-05T14:25:23.984Z,16.27
2018-11-05T14:27:53.324Z,15.77
2018-11-05T14:30:22.188Z,15.33
2018-11-05T14:32:51.800Z,19.50
2018-11-05T14:35:20.922Z,17.30
2018-11-05T14:37:50.006Z,18.93
2018-11-05T14:40:20.063Z,18.00
2018-11-05T14:42:55.123Z,21.03
2018-11-05T14:45:24.268Z,20.50
2018-11-05T14:47:53.292Z,19.50
2018-11-05T14:50:23.273Z,21.60
2018-11-05T14:52:52.347Z,25.23
2018-11-05T14:55:21.555Z,17.00
2018-11-05T14:57:51.652Z,23.07
2018-11-05T15:00:26.362Z,19.13
2018-11-05T15:02:56.361Z,17.32
2018-11-05T15:05:25.442Z,23.17
2018-11-05T15:07:55.641Z,19.27
2018-11-05T15:10:25.633Z,23.37
2018-11-05T15:12:54.911Z,25.07
2018-11-05T15:15:24.205Z,24.23
2018-11-05T15:17:53.307Z,24.27
2018-11-05T15:20:23.194Z,20.45
2018-11-05T15:22:52.245Z,22.98
2018-11-05T15:25:21.851Z,25.87
2018-11-05T15:27:50.973Z,19.63
2018-11-05T15:30:21.373Z,18.90
2018-11-05T15:32:50.460Z,19.37
2018-11-05T15:35:19.532Z,21.33
2018-11-05T15:37:48.612Z,19.93
2018-11-05T15:40:19.227Z,20.73
2018-11-05T15:42:48.285Z,25.90
2018-11-05T15:45:18.791Z,23.77
2018-11-05T15:47:47.903Z,25.43
2018-11-05T15:50:18.332Z,26.80
2018-11-05T15:52:47.789Z,19.73
2018-11-05T15:55:16.564Z,18.07
2018-11-05T15:57:45.784Z,19.27
2018-11-05T16:00:20.971Z,18.57
2018-11-05T16:02:52.537Z,21.43
2018-11-05T16:05:21.825Z,13.43
2018-11-05T16:07:51.023Z,14.53
2018-11-05T16:10:20.167Z,12.07
2018-11-05T16:12:49.319Z,13.28
2018-11-05T16:15:18.407Z,12.65
2018-11-05T16:17:47.753Z,12.30
2018-11-05T16:20:18.085Z,15.90
2018-11-05T16:22:48.090Z,12.30
2018-11-05T16:25:17.190Z,13.43
2018-11-05T16:27:46.240Z,22.80
2018-11-05T16:30:17.819Z,14.77
2018-11-05T16:32:47.616Z,16.40
2018-11-05T16:35:16.733Z,14.67
2018-11-05T16:37:45.805Z,15.37
2018-11-05T16:40:16.095Z,15.77
2018-11-05T16:42:46.144Z,16.52
2018-11-05T16:45:15.268Z,16.63
2018-11-05T16:47:45.193Z,14.37
2018-11-05T16:50:18.867Z,17.90
2018-11-05T16:52:47.943Z,15.88
2018-11-05T16:55:17.020Z,14.87
2018-11-05T16:57:46.207Z,17.87
2018-11-05T17:00:15.659Z,17.87
2018-11-05T17:02:45.412Z,18.40
2018-11-05T17:05:14.243Z,18.77
2018-11-05T17:07:43.406Z,17.13
2018-11-05T17:10:13.729Z,18.93
2018-11-05T17:12:43.567Z,17.50
2018-11-05T17:15:14.136Z,17.20
2018-11-05T17:17:44.607Z,17.75
2018-11-05T17:20:16.331Z,17.73
2018-11-05T17:22:45.780Z,20.10
2018-11-05T17:25:15.435Z,19.60
2018-11-05T17:27:45.256Z,21.20
2018-11-05T17:30:19.271Z,20.90
2018-11-05T17:32:48.352Z,17.50
2018-11-05T17:35:17.849Z,19.43
2018-11-05T17:37:47.368Z,21.50
2018-11-05T17:40:17.795Z,16.33
2018-11-05T17:42:46.779Z,21.07
2018-11-05T17:45:17.081Z,17.73
2018-11-05T17:47:46.252Z,16.07
2018-11-05T17:50:17.606Z,15.70
2018-11-05T17:52:46.647Z,14.17
2018-11-05T17:55:15.920Z,19.80
2018-11-05T17:57:46.165Z,16.10
2018-11-05T18:00:16.847Z,16.73
2018-11-05T18:02:46.139Z,16.87
2018-11-05T18:05:15.608Z,15.27
2018-11-05T18:07:44.936Z,20.70
2018-11-05T18:10:13.992Z,19.93
2018-11-05T18:12:43.092Z,19.13
2018-11-05T18:15:12.890Z,15.03
2018-11-05T18:17:42.760Z,16.80
2018-11-05T18:20:12.915Z,18.60
2018-11-05T18:22:42.345Z,14.63
2018-11-05T18:25:13.721Z,18.13
2018-11-05T18:27:44.549Z,17.03
2018-11-05T18:30:14.463Z,15.80
2018-11-05T18:32:43.796Z,17.30
2018-11-05T18:35:14.428Z,18.93
2018-11-05T18:37:46.079Z,17.73
2018-11-05T18:40:16.077Z,17.35
2018-11-05T18:42:45.864Z,17.83
2018-11-05T18:45:16.390Z,18.13
2018-11-05T18:47:45.469Z,15.87
2018-11-05T18:50:15.743Z,16.57
2018-11-05T18:52:45.585Z,15.30
2018-11-05T18:55:16.200Z,18.27
2018-11-05T18:57:45.627Z,22.20
2018-11-05T19:00:25.704Z,18.42
2018-11-05T19:02:56.091Z,18.97
2018-11-05T19:05:26.665Z,19.42
2018-11-05T19:07:56.106Z,19.00
2018-11-05T19:10:25.451Z,17.30
2018-11-05T19:12:54.897Z,16.62
2018-11-05T19:15:25.639Z,18.35
2018-11-05T19:17:55.003Z,18.10
2018-11-05T19:20:24.486Z,17.50
2018-11-05T19:22:54.370Z,18.27
2018-11-05T19:25:23.472Z,17.57
2018-11-05T19:27:53.343Z,20.23
2018-11-05T19:30:25.006Z,20.67
2018-11-05T19:32:54.449Z,20.43
2018-11-05T19:35:23.907Z,18.10
2018-11-05T19:37:53.706Z,18.20
2018-11-05T19:40:24.678Z,19.20
2018-11-05T19:42:54.122Z,20.23
2018-11-05T19:45:24.743Z,17.67
2018-11-05T19:47:54.859Z,19.25
2018-11-05T19:50:24.612Z,21.53
2018-11-05T19:52:54.656Z,19.57
2018-11-05T19:55:23.915Z,20.63
2018-11-05T19:57:53.604Z,18.63
2018-11-05T20:00:25.521Z,18.23
2018-11-05T20:02:55.690Z,19.57
2018-11-05T20:05:24.997Z,13.58
2018-11-05T20:07:55.157Z,16.47
2018-11-05T20:10:25.478Z,18.92
2018-11-05T20:12:54.982Z,15.90
2018-11-05T20:15:25.848Z,14.70
2018-11-05T20:17:56.016Z,14.87
2018-11-05T20:20:26.541Z,17.45
2018-11-05T20:22:55.808Z,18.20
2018-11-05T20:25:24.961Z,14.77
2018-11-05T20:27:54.975Z,13.90
2018-11-05T20:30:26.777Z,15.63
2018-11-05T20:32:57.079Z,16.30
2018-11-05T20:35:26.000Z,16.97
2018-11-05T20:37:55.724Z,13.70
2018-11-05T20:40:25.309Z,14.67
2018-11-05T20:42:54.956Z,14.20
2018-11-05T20:45:24.549Z,16.77
2018-11-05T20:47:54.076Z,18.53
2018-11-05T20:50:24.793Z,16.47
2018-11-05T20:52:53.950Z,15.20
2018-11-05T20:55:23.592Z,17.13
2018-11-05T20:57:55.075Z,19.07
2018-11-05T21:00:24.904Z,18.17
2018-11-05T21:02:54.498Z,17.87
2018-11-05T21:05:23.635Z,17.57
2018-11-05T21:07:52.939Z,16.33
2018-11-05T21:10:22.125Z,16.52
2018-11-05T21:12:51.644Z,15.10
2018-11-05T21:15:22.072Z,12.73
2018-11-05T21:17:53.337Z,16.03
2018-11-05T21:20:22.632Z,15.00
2018-11-05T21:22:51.950Z,17.23
2018-11-05T21:25:21.022Z,19.90
2018-11-05T21:27:50.497Z,18.97
2018-11-05T21:30:20.951Z,20.03
2018-11-05T21:32:51.697Z,17.43
2018-11-05T21:35:21.884Z,17.87
2018-11-05T21:37:51.037Z,19.60
2018-11-05T21:40:21.260Z,17.30
2018-11-05T21:42:50.928Z,19.53
2018-11-05T21:45:20.132Z,16.67
2018-11-05T21:47:49.196Z,14.73
2018-11-05T21:50:19.200Z,16.37
2018-11-05T21:52:50.556Z,17.17
2018-11-05T21:55:19.681Z,17.70
2018-11-05T21:57:49.980Z,15.58
2018-11-05T22:00:25.189Z,17.33
2018-11-05T22:02:57.462Z,15.40
2018-11-05T22:05:26.627Z,17.00
2018-11-05T22:07:56.032Z,18.07
2018-11-05T22:10:25.296Z,15.80
2018-11-05T22:12:54.993Z,15.70
2018-11-05T22:15:24.070Z,14.20
2018-11-05T22:17:53.184Z,13.77
2018-11-05T22:20:22.492Z,14.00
2018-11-05T22:22:51.671Z,10.93
2018-11-05T22:25:20.981Z,11.47
2018-11-05T22:27:50.553Z,15.70
2018-11-05T22:30:20.414Z,11.75
2018-11-05T22:32:49.672Z,10.47
2018-11-05T22:35:19.029Z,11.30
2018-11-05T22:37:48.204Z,15.57
2018-11-05T22:40:17.529Z,11.87
2018-11-05T22:42:46.672Z,13.20
2018-11-05T22:45:16.612Z,11.10
2018-11-05T22:47:46.043Z,9.20
2018-11-05T22:50:15.150Z,11.90
2018-11-05T22:52:44.864Z,11.13
2018-11-05T22:55:14.020Z,11.73
2018-11-05T22:57:43.278Z,11.13
2018-11-05T23:01:17.320Z,15.30
2018-11-05T23:03:46.340Z,11.87
2018-11-05T23:06:15.899Z,11.60
2018-11-05T23:08:45.064Z,14.30
2018-11-05T23:11:14.255Z,9.93
2018-11-05T23:13:43.516Z,9.85
2018-11-05T23:16:12.732Z,12.63
2018-11-05T23:18:41.972Z,10.03
2018-11-05T23:21:11.204Z,12.15
2018-11-05T23:23:40.616Z,12.15
2018-11-05T23:26:09.838Z,10.00
2018-11-05T23:28:38.949Z,10.90
2018-11-05T23:31:09.069Z,12.33
2018-11-05T23:33:38.631Z,12.00
2018-11-05T23:36:07.779Z,12.53
2018-11-05T23:38:36.898Z,9.57
2018-11-05T23:41:06.469Z,11.20
2018-11-05T23:43:36.134Z,9.07
2018-11-05T23:46:05.324Z,9.20
2018-11-05T23:48:34.393Z,12.20
2018-11-05T23:51:04.059Z,12.63
2018-11-05T23:53:33.238Z,12.00
2018-11-05T23:56:02.519Z,10.53
2018-11-05T23:58:32.161Z,9.08
